createdAt,value
2022-08-23T00:01:24.215Z,75.56
2022-08-23T00:03:56.178Z,75.05
2022-08-23T00:06:24.616Z,75.34
2022-08-23T00:08:53.673Z,75.48
2022-08-23T00:11:33.700Z,75.53
2022-08-23T00:14:07.655Z,75.73
2022-08-23T00:16:36.198Z,75.61
2022-08-23T00:19:06.386Z,75.85
2022-08-23T00:21:35.614Z,76.06
2022-08-23T00:24:03.755Z,76.36
2022-08-23T00:26:50.136Z,76.64
2022-08-23T00:29:18.516Z,76.93
2022-08-23T00:31:47.328Z,77.12
2022-08-23T00:34:16.808Z,78.06
2022-08-23T00:36:45.500Z,78.49
2022-08-23T00:39:13.540Z,78.88
2022-08-23T00:41:41.620Z,78.67
2022-08-23T00:44:33.392Z,78.08
2022-08-23T00:47:18.865Z,77.61
2022-08-23T00:49:55.158Z,77.25
2022-08-23T00:52:29.607Z,77.52
2022-08-23T00:54:57.971Z,77.75
2022-08-23T00:57:25.975Z,77.35
2022-08-23T00:59:53.984Z,78.33
2022-08-23T01:02:22.100Z,78.49
2022-08-23T01:04:56.579Z,78.47
2022-08-23T01:07:37.627Z,79.29
2022-08-23T01:10:14.974Z,79.06
2022-08-23T01:12:55.870Z,79.55
2022-08-23T01:15:27.839Z,79.60
2022-08-23T01:18:03.075Z,78.93
2022-08-23T01:20:39.548Z,77.96
2022-08-23T01:23:22.168Z,78.00
2022-08-23T01:25:50.281Z,77.75
2022-08-23T01:28:18.289Z,77.45
2022-08-23T01:30:48.861Z,77.93
2022-08-23T01:33:19.611Z,77.62
2022-08-23T01:35:50.644Z,77.95
2022-08-23T01:38:20.948Z,77.82
2022-08-23T01:40:49.479Z,77.43
2022-08-23T01:43:19.836Z,77.53
2022-08-23T01:45:50.898Z,77.62
2022-08-23T01:48:19.816Z,78.10
2022-08-23T01:50:48.178Z,77.60
2022-08-23T01:53:16.454Z,78.40
2022-08-23T01:55:50.120Z,77.75
2022-08-23T01:58:20.415Z,76.81
2022-08-23T02:00:48.364Z,76.75
2022-08-23T02:03:17.088Z,76.83
2022-08-23T02:05:45.695Z,76.41
2022-08-23T02:08:31.241Z,77.16
2022-08-23T02:11:08.030Z,76.50
2022-08-23T02:13:35.827Z,76.42
2022-08-23T02:16:04.296Z,76.11
2022-08-23T02:18:33.736Z,76.21
2022-08-23T02:21:01.955Z,76.33
2022-08-23T02:23:29.864Z,77.27
2022-08-23T02:25:57.989Z,76.32
2022-08-23T02:28:27.553Z,77.34
2022-08-23T02:30:55.376Z,77.35
2022-08-23T02:33:23.615Z,77.28
2022-08-23T02:35:51.883Z,77.19
2022-08-23T02:38:21.011Z,77.85
2022-08-23T02:40:52.924Z,77.98
2022-08-23T02:43:30.102Z,77.72
2022-08-23T02:45:58.155Z,78.40
2022-08-23T02:48:26.483Z,78.05
2022-08-23T02:51:08.493Z,78.03
2022-08-23T02:53:36.703Z,77.58
2022-08-23T02:56:21.286Z,77.37
2022-08-23T02:58:54.442Z,77.79
2022-08-23T03:01:26.323Z,77.86
2022-08-23T03:03:55.966Z,77.65
2022-08-23T03:06:26.499Z,78.21
2022-08-23T03:08:55.173Z,78.48
2022-08-23T03:11:24.907Z,77.82
2022-08-23T03:13:56.295Z,77.23
2022-08-23T03:16:24.469Z,78.10
2022-08-23T03:18:53.117Z,78.30
2022-08-23T03:21:22.295Z,78.27
2022-08-23T03:23:50.238Z,78.17
2022-08-23T03:26:18.795Z,77.91
2022-08-23T03:28:47.506Z,78.67
2022-08-23T03:31:17.989Z,77.93
2022-08-23T03:34:01.249Z,78.21
2022-08-23T03:36:29.103Z,78.54
2022-08-23T03:38:59.254Z,78.08
2022-08-23T03:41:27.572Z,78.32
2022-08-23T03:43:55.419Z,78.72
2022-08-23T03:46:24.928Z,78.72
2022-08-23T03:49:01.144Z,78.75
2022-08-23T03:51:35.303Z,78.18
2022-08-23T03:54:03.899Z,78.55
2022-08-23T03:56:34.743Z,78.07
2022-08-23T03:59:05.379Z,78.43
2022-08-23T04:01:34.668Z,78.38
2022-08-23T04:04:02.471Z,78.39
2022-08-23T04:06:32.965Z,78.35
2022-08-23T04:09:01.659Z,77.98
2022-08-23T04:11:29.583Z,78.37
2022-08-23T04:14:02.910Z,78.73
2022-08-23T04:16:36.194Z,78.92
2022-08-23T04:19:05.755Z,78.19
2022-08-23T04:21:39.266Z,78.25
2022-08-23T04:24:07.494Z,77.91
2022-08-23T04:26:35.774Z,78.29
2022-08-23T04:29:03.795Z,78.66
2022-08-23T04:31:34.710Z,78.08
2022-08-23T04:34:05.278Z,78.63
2022-08-23T04:36:39.139Z,78.86
2022-08-23T04:39:07.488Z,77.86
2022-08-23T04:41:53.296Z,78.71
2022-08-23T04:44:21.559Z,78.14
2022-08-23T04:46:51.307Z,78.89
2022-08-23T04:49:24.578Z,78.63
2022-08-23T04:51:54.038Z,79.02
2022-08-23T04:54:23.280Z,77.95
2022-08-23T04:57:08.079Z,78.27
2022-08-23T04:59:37.882Z,78.38
2022-08-23T05:02:06.022Z,79.56
2022-08-23T05:04:35.301Z,79.15
2022-08-23T05:07:04.057Z,79.85
2022-08-23T05:09:32.147Z,79.20
2022-08-23T05:12:00.137Z,80.04
2022-08-23T05:14:29.640Z,80.49
2022-08-23T05:16:57.447Z,80.58
2022-08-23T05:19:26.222Z,80.14
2022-08-23T05:21:57.177Z,80.14
2022-08-23T05:24:34.846Z,81.66
2022-08-23T05:27:02.771Z,81.58
2022-08-23T05:29:31.018Z,81.69
2022-08-23T05:31:58.939Z,81.87
2022-08-23T05:34:27.088Z,82.31
2022-08-23T05:36:58.956Z,82.62
2022-08-23T05:39:36.349Z,82.60
2022-08-23T05:42:13.886Z,83.44
2022-08-23T05:44:42.688Z,83.19
2022-08-23T05:47:13.782Z,84.42
2022-08-23T05:49:56.824Z,84.60
2022-08-23T05:52:27.437Z,84.77
2022-08-23T05:54:55.335Z,84.88
2022-08-23T05:57:42.139Z,84.78
2022-08-23T06:00:14.401Z,85.12
2022-08-23T06:02:49.208Z,84.86
2022-08-23T06:05:19.610Z,84.33
2022-08-23T06:07:50.224Z,84.60
2022-08-23T06:10:21.418Z,85.55
2022-08-23T06:13:03.159Z,84.69
2022-08-23T06:15:31.243Z,83.29
2022-08-23T06:17:59.725Z,83.73
2022-08-23T06:20:28.024Z,82.68
2022-08-23T06:23:08.788Z,82.00
2022-08-23T06:25:40.817Z,82.27
2022-08-23T06:28:13.374Z,82.39
2022-08-23T06:30:43.394Z,80.72
2022-08-23T06:33:21.972Z,80.88
2022-08-23T06:36:10.851Z,79.52
2022-08-23T06:39:00.307Z,75.69
2022-08-23T06:42:02.035Z,73.16
2022-08-23T06:44:32.549Z,69.00
2022-08-23T06:47:12.182Z,68.10
2022-08-23T06:49:40.303Z,65.85
2022-08-23T06:52:24.060Z,64.90
2022-08-23T06:55:02.304Z,65.12
2022-08-23T06:57:41.846Z,63.94
2022-08-23T07:00:28.304Z,63.63
2022-08-23T07:03:28.592Z,64.66
2022-08-23T07:06:16.740Z,62.61
2022-08-23T07:08:45.756Z,63.15
2022-08-23T07:11:15.200Z,62.54
2022-08-23T07:13:43.252Z,60.71
2022-08-23T07:16:12.162Z,61.20
2022-08-23T07:18:40.725Z,60.78
2022-08-23T07:21:14.364Z,61.16
2022-08-23T07:23:46.645Z,60.01
2022-08-23T07:26:18.631Z,58.91
2022-08-23T07:28:46.575Z,58.98
2022-08-23T07:31:19.110Z,58.35
2022-08-23T07:33:48.336Z,58.30
2022-08-23T07:36:23.318Z,57.71
2022-08-23T07:38:53.748Z,56.99
2022-08-23T07:41:25.352Z,56.38
2022-08-23T07:43:54.957Z,56.60
2022-08-23T07:46:26.833Z,56.96
2022-08-23T07:48:55.188Z,57.04
2022-08-23T07:51:32.834Z,56.19
2022-08-23T07:54:02.776Z,55.58
2022-08-23T07:56:32.314Z,55.80
2022-08-23T07:59:11.431Z,55.79
2022-08-23T08:01:43.759Z,55.63
2022-08-23T08:04:13.075Z,55.54
2022-08-23T08:06:59.825Z,55.38
2022-08-23T08:09:35.481Z,55.06
2022-08-23T08:12:05.513Z,55.46
2022-08-23T08:14:34.306Z,55.27
2022-08-23T08:17:06.852Z,55.25
2022-08-23T08:19:48.840Z,55.03
2022-08-23T08:22:35.465Z,55.81
2022-08-23T08:25:26.170Z,55.21
2022-08-23T08:27:56.938Z,55.48
2022-08-23T08:30:24.816Z,57.10
2022-08-23T08:32:52.908Z,56.24
2022-08-23T08:35:22.654Z,56.41
2022-08-23T08:37:50.777Z,55.11
2022-08-23T08:40:26.055Z,56.21
2022-08-23T08:43:16.505Z,55.67
2022-08-23T08:45:58.909Z,55.19
2022-08-23T08:48:34.074Z,55.06
2022-08-23T08:51:07.214Z,54.75
2022-08-23T08:53:39.496Z,55.30
2022-08-23T08:56:20.872Z,55.81
2022-08-23T08:58:59.880Z,54.88
2022-08-23T09:01:31.112Z,55.28
2022-08-23T09:03:59.326Z,54.91
2022-08-23T09:06:35.243Z,55.31
2022-08-23T09:09:22.139Z,54.18
2022-08-23T09:12:02.302Z,54.50
2022-08-23T09:14:53.311Z,54.49
2022-08-23T09:17:26.367Z,53.49
2022-08-23T09:20:00.324Z,53.92
2022-08-23T09:22:37.726Z,54.18
2022-08-23T09:25:13.148Z,53.62
2022-08-23T09:27:58.857Z,54.27
2022-08-23T09:30:50.143Z,53.77
2022-08-23T09:33:21.048Z,55.29
2022-08-23T09:36:06.804Z,55.49
2022-08-23T09:38:39.582Z,54.74
2022-08-23T09:41:19.189Z,53.31
2022-08-23T09:43:50.416Z,53.31
2022-08-23T09:46:30.372Z,52.74
2022-08-23T09:49:01.149Z,53.57
2022-08-23T09:51:37.752Z,53.81
2022-08-23T09:54:13.194Z,53.66
2022-08-23T09:56:45.080Z,53.57
2022-08-23T09:59:26.535Z,52.97
2022-08-23T10:02:02.692Z,52.89
2022-08-23T10:04:42.159Z,55.56
2022-08-23T10:07:33.903Z,52.81
2022-08-23T10:10:24.441Z,53.14
2022-08-23T10:12:56.062Z,52.53
2022-08-23T10:15:45.157Z,53.25
2022-08-23T10:18:29.581Z,52.28
2022-08-23T10:21:06.250Z,51.97
2022-08-23T10:23:45.487Z,52.38
2022-08-23T10:26:24.844Z,53.07
2022-08-23T10:29:17.096Z,50.38
2022-08-23T10:31:59.023Z,48.83
2022-08-23T10:34:48.402Z,47.64
2022-08-23T10:37:39.440Z,47.48
2022-08-23T10:40:16.397Z,46.48
2022-08-23T10:42:55.342Z,45.21
2022-08-23T10:45:27.583Z,46.10
2022-08-23T10:48:14.910Z,43.90
2022-08-23T10:50:54.639Z,43.66
2022-08-23T10:53:37.409Z,41.84
2022-08-23T10:56:07.920Z,42.08
2022-08-23T10:58:47.394Z,42.55
2022-08-23T11:01:19.017Z,42.71
2022-08-23T11:03:56.395Z,42.14
2022-08-23T11:06:45.886Z,41.61
2022-08-23T11:09:50.973Z,40.18
2022-08-23T11:12:29.143Z,40.71
2022-08-23T11:15:20.598Z,40.52
2022-08-23T11:18:39.176Z,40.39
2022-08-23T11:21:12.420Z,39.72
2022-08-23T11:23:55.923Z,40.42
2022-08-23T11:27:07.424Z,39.73
2022-08-23T11:29:43.565Z,39.27
2022-08-23T11:32:45.395Z,39.75
2022-08-23T11:35:36.915Z,39.68
2022-08-23T11:38:09.288Z,38.95
2022-08-23T11:41:12.615Z,37.60
2022-08-23T11:43:42.868Z,37.19
2022-08-23T11:46:35.847Z,37.12
2022-08-23T11:49:41.040Z,36.32
2022-08-23T11:52:38.641Z,36.21
2022-08-23T11:55:24.860Z,36.88
2022-08-23T11:58:12.210Z,34.81
2022-08-23T12:00:57.391Z,36.21
2022-08-23T12:03:33.518Z,34.54
2022-08-23T12:06:24.806Z,35.12
2022-08-23T12:09:01.678Z,34.85
2022-08-23T12:12:00.741Z,33.26
2022-08-23T12:14:50.722Z,33.38
2022-08-23T12:17:53.415Z,33.05
2022-08-23T12:20:30.068Z,34.34
2022-08-23T12:23:07.754Z,33.90
2022-08-23T12:25:36.215Z,34.07
2022-08-23T12:28:27.609Z,33.50
2022-08-23T12:31:07.866Z,33.40
2022-08-23T12:33:54.595Z,33.10
2022-08-23T12:36:31.244Z,33.64
2022-08-23T12:39:15.758Z,33.21
2022-08-23T12:41:56.667Z,33.56
2022-08-23T12:44:27.921Z,33.07
2022-08-23T12:46:58.092Z,33.27
2022-08-23T12:49:29.591Z,32.80
2022-08-23T12:51:59.177Z,32.79
2022-08-23T12:54:39.587Z,33.59
2022-08-23T12:57:11.643Z,34.11
2022-08-23T12:59:52.915Z,33.68
2022-08-23T13:02:33.145Z,32.96
2022-08-23T13:05:13.464Z,33.49
2022-08-23T13:07:42.239Z,33.37
2022-08-23T13:10:12.082Z,34.20
2022-08-23T13:12:42.237Z,33.49
2022-08-23T13:15:10.825Z,32.91
2022-08-23T13:17:41.004Z,33.96
2022-08-23T13:20:21.931Z,32.99
2022-08-23T13:23:01.794Z,33.32
2022-08-23T13:25:37.895Z,32.42
2022-08-23T13:28:09.092Z,34.41
2022-08-23T13:30:39.092Z,34.86
2022-08-23T13:33:24.510Z,35.53
2022-08-23T13:36:11.460Z,36.96
2022-08-23T13:38:43.251Z,36.58
2022-08-23T13:41:14.046Z,35.87
2022-08-23T13:43:49.018Z,36.09
2022-08-23T13:46:22.671Z,36.43
2022-08-23T13:48:59.163Z,36.31
2022-08-23T13:51:30.479Z,35.12
2022-08-23T13:54:01.009Z,34.44
2022-08-23T13:56:30.651Z,35.35
2022-08-23T13:59:01.294Z,35.41
2022-08-23T14:01:30.100Z,35.86
2022-08-23T14:03:59.350Z,36.32
2022-08-23T14:06:27.188Z,35.58
2022-08-23T14:08:55.249Z,35.86
2022-08-23T14:11:23.330Z,35.52
2022-08-23T14:13:51.627Z,36.04
2022-08-23T14:16:39.853Z,36.43
2022-08-23T14:19:16.507Z,35.78
2022-08-23T14:21:47.130Z,36.83
2022-08-23T14:24:15.196Z,37.91
2022-08-23T14:26:50.196Z,38.01
2022-08-23T14:29:19.711Z,37.63
2022-08-23T14:31:50.715Z,37.52
2022-08-23T14:34:20.488Z,38.05
2022-08-23T14:39:36.235Z,38.38
2022-08-23T14:42:05.781Z,38.08
2022-08-23T14:44:35.887Z,38.56
2022-08-23T14:47:05.407Z,39.03
2022-08-23T14:49:35.818Z,39.30
2022-08-23T14:52:04.495Z,39.50
2022-08-23T14:54:32.947Z,39.42
2022-08-23T14:57:00.811Z,39.16
2022-08-23T14:59:28.587Z,39.45
2022-08-23T15:01:57.623Z,39.68
2022-08-23T15:04:34.055Z,40.03
2022-08-23T15:07:17.611Z,40.36
2022-08-23T15:09:46.400Z,39.62
2022-08-23T15:15:02.307Z,40.29
2022-08-23T15:17:31.677Z,40.45
2022-08-23T15:20:00.118Z,40.49
2022-08-23T15:22:29.338Z,40.11
2022-08-23T15:24:57.329Z,39.84
2022-08-23T15:27:25.803Z,39.98
2022-08-23T15:29:54.169Z,40.04
2022-08-23T15:32:22.752Z,40.37
2022-08-23T15:34:51.734Z,40.78
2022-08-23T15:37:22.557Z,40.56
2022-08-23T15:39:52.091Z,39.96
2022-08-23T15:42:20.765Z,40.33
2022-08-23T15:44:49.313Z,40.66
2022-08-23T15:47:21.403Z,39.88
2022-08-23T15:49:50.058Z,40.66
2022-08-23T15:52:18.580Z,40.77
2022-08-23T15:54:47.258Z,40.31
2022-08-23T15:57:20.331Z,41.24
2022-08-23T15:59:48.681Z,41.21
2022-08-23T16:02:16.993Z,42.00
2022-08-23T16:04:45.435Z,42.71
2022-08-23T16:07:18.921Z,43.59
2022-08-23T16:09:47.372Z,43.86
2022-08-23T16:12:17.096Z,44.69
2022-08-23T16:14:44.984Z,43.65
2022-08-23T16:17:14.966Z,44.00
2022-08-23T16:19:44.228Z,44.23
2022-08-23T16:22:12.387Z,44.57
2022-08-23T16:24:40.306Z,44.61
2022-08-23T16:27:09.043Z,44.47
2022-08-23T16:29:40.892Z,44.42
2022-08-23T16:32:09.496Z,44.73
2022-08-23T16:34:37.387Z,43.90
2022-08-23T16:37:09.594Z,43.80
2022-08-23T16:39:38.375Z,43.12
2022-08-23T16:42:07.481Z,44.03
2022-08-23T16:44:35.834Z,44.57
2022-08-23T16:47:07.241Z,45.36
2022-08-23T16:49:35.096Z,44.21
2022-08-23T16:52:03.217Z,44.15
2022-08-23T16:54:31.303Z,44.26
2022-08-23T16:56:59.062Z,44.03
2022-08-23T16:59:26.865Z,45.11
2022-08-23T17:01:57.647Z,45.38
2022-08-23T17:04:30.456Z,45.91
2022-08-23T17:06:59.327Z,45.38
2022-08-23T17:09:29.501Z,45.20
2022-08-23T17:11:59.108Z,45.59
2022-08-23T17:14:28.272Z,45.80
2022-08-23T17:16:56.117Z,45.24
2022-08-23T17:19:24.810Z,45.51
2022-08-23T17:21:54.200Z,45.74
2022-08-23T17:24:24.379Z,45.19
2022-08-23T17:26:52.266Z,45.53
2022-08-23T17:29:20.443Z,46.53
2022-08-23T17:31:48.664Z,46.66
2022-08-23T17:34:16.639Z,46.82
2022-08-23T17:36:47.696Z,46.50
2022-08-23T17:39:19.888Z,46.46
2022-08-23T17:41:48.048Z,46.34
2022-08-23T17:44:16.062Z,46.73
2022-08-23T17:46:46.393Z,47.02
2022-08-23T17:49:15.317Z,47.16
2022-08-23T17:51:44.215Z,46.93
2022-08-23T17:54:16.080Z,47.14
2022-08-23T17:56:49.916Z,47.28
2022-08-23T17:59:19.120Z,47.69
2022-08-23T18:01:47.198Z,47.51
2022-08-23T18:04:15.091Z,48.21
2022-08-23T18:06:42.920Z,48.40
2022-08-23T18:09:11.948Z,49.78
2022-08-23T18:11:39.939Z,50.30
2022-08-23T18:14:09.331Z,49.89
2022-08-23T18:16:38.477Z,50.60
2022-08-23T18:19:07.376Z,51.36
2022-08-23T18:21:40.542Z,52.36
2022-08-23T18:24:09.320Z,51.83
2022-08-23T18:26:57.653Z,52.63
2022-08-23T18:29:27.071Z,53.94
2022-08-23T18:31:55.019Z,53.56
2022-08-23T18:34:23.278Z,53.40
2022-08-23T18:36:51.279Z,54.36
2022-08-23T18:39:31.473Z,53.22
2022-08-23T18:42:00.557Z,54.08
2022-08-23T18:44:30.394Z,53.74
2022-08-23T18:47:01.791Z,54.21
2022-08-23T18:49:29.848Z,55.07
2022-08-23T18:51:57.699Z,56.17
2022-08-23T18:54:25.577Z,56.46
2022-08-23T18:56:53.382Z,56.16
2022-08-23T18:59:21.298Z,57.53
2022-08-23T19:01:51.199Z,57.42
2022-08-23T19:04:19.467Z,57.09
2022-08-23T19:06:48.007Z,56.92
2022-08-23T19:09:16.041Z,57.32
2022-08-23T19:11:44.477Z,57.18
2022-08-23T19:14:12.805Z,60.06
2022-08-23T19:16:45.732Z,58.26
2022-08-23T19:19:18.749Z,58.22
2022-08-23T19:21:46.668Z,58.64
2022-08-23T19:24:14.805Z,59.35
2022-08-23T19:26:47.310Z,60.23
2022-08-23T19:29:16.000Z,61.18
2022-08-23T19:31:47.767Z,62.21
2022-08-23T19:34:17.912Z,61.82
2022-08-23T19:36:51.168Z,61.90
2022-08-23T19:39:26.943Z,62.99
2022-08-23T19:41:55.223Z,63.04
2022-08-23T19:44:23.686Z,62.80
2022-08-23T19:46:51.588Z,62.22
2022-08-23T19:49:20.814Z,63.38
2022-08-23T19:51:48.569Z,65.66
2022-08-23T19:54:17.307Z,63.50
2022-08-23T19:56:48.412Z,63.89
2022-08-23T19:59:20.261Z,64.54
2022-08-23T20:01:49.182Z,63.57
2022-08-23T20:04:17.380Z,64.75
2022-08-23T20:06:46.808Z,65.12
2022-08-23T20:09:14.563Z,65.91
2022-08-23T20:11:42.757Z,67.21
2022-08-23T20:14:11.087Z,66.09
2022-08-23T20:16:41.051Z,66.04
2022-08-23T20:19:12.646Z,66.12
2022-08-23T20:21:41.752Z,65.28
2022-08-23T20:24:12.292Z,68.00
2022-08-23T20:26:43.586Z,67.54
2022-08-23T20:29:14.078Z,68.56
2022-08-23T20:31:50.831Z,68.41
2022-08-23T20:34:19.062Z,67.62
2022-08-23T20:36:48.059Z,67.86
2022-08-23T20:39:21.838Z,68.44
2022-08-23T20:41:52.161Z,67.09
2022-08-23T20:44:20.506Z,69.69
2022-08-23T20:46:53.220Z,70.82
2022-08-23T20:49:22.789Z,70.09
2022-08-23T20:51:51.051Z,69.20
2022-08-23T20:54:22.057Z,69.00
2022-08-23T20:56:51.803Z,68.75
2022-08-23T20:59:21.188Z,68.24
2022-08-23T21:01:51.561Z,68.20
2022-08-23T21:04:19.505Z,68.08
2022-08-23T21:06:51.229Z,69.63
2022-08-23T21:09:23.496Z,70.44
2022-08-23T21:11:55.485Z,69.70
2022-08-23T21:14:23.288Z,69.44
2022-08-23T21:16:51.119Z,68.96
2022-08-23T21:19:19.806Z,70.11
2022-08-23T21:21:47.688Z,70.16
2022-08-23T21:24:16.509Z,71.21
2022-08-23T21:26:45.672Z,72.00
2022-08-23T21:29:13.571Z,72.81
2022-08-23T21:31:41.366Z,72.44
2022-08-23T21:34:09.734Z,72.81
2022-08-23T21:36:37.814Z,73.71
2022-08-23T21:39:06.308Z,75.25
2022-08-23T21:41:39.093Z,73.93
2022-08-23T21:44:11.213Z,73.21
2022-08-23T21:46:39.281Z,72.88
2022-08-23T21:49:08.230Z,73.73
2022-08-23T21:51:40.467Z,74.61
2022-08-23T21:54:09.971Z,73.50
2022-08-23T21:56:39.086Z,72.94
2022-08-23T21:59:10.033Z,73.24
2022-08-23T22:01:38.151Z,74.43
2022-08-23T22:04:08.814Z,73.91
2022-08-23T22:06:38.175Z,73.97
2022-08-23T22:09:06.380Z,75.02
2022-08-23T22:11:36.182Z,75.42
2022-08-23T22:14:04.112Z,76.32
2022-08-23T22:16:33.279Z,75.29
2022-08-23T22:19:01.084Z,74.77
2022-08-23T22:21:28.868Z,74.58
2022-08-23T22:24:03.245Z,75.61
2022-08-23T22:26:31.220Z,75.49
2022-08-23T22:28:59.200Z,75.30
2022-08-23T22:31:27.257Z,75.69
2022-08-23T22:33:56.500Z,75.26
2022-08-23T22:36:25.331Z,74.97
2022-08-23T22:38:53.131Z,74.97
2022-08-23T22:41:23.923Z,75.29
2022-08-23T22:43:54.287Z,75.71
2022-08-23T22:46:22.949Z,75.79
2022-08-23T22:48:51.050Z,75.91
2022-08-23T22:51:22.649Z,75.87
2022-08-23T22:53:52.740Z,75.88
2022-08-23T22:56:24.624Z,76.04
2022-08-23T22:58:54.846Z,76.22
2022-08-23T23:01:26.008Z,76.94
2022-08-23T23:03:54.744Z,76.81
2022-08-23T23:06:24.820Z,76.88
2022-08-23T23:08:53.393Z,76.67
2022-08-23T23:11:23.432Z,77.17
2022-08-23T23:13:51.856Z,78.14
2022-08-23T23:16:22.659Z,78.14
2022-08-23T23:19:05.205Z,78.48
2022-08-23T23:21:36.291Z,77.90
2022-08-23T23:24:04.904Z,77.99
2022-08-23T23:26:32.748Z,77.76
2022-08-23T23:29:00.772Z,77.86
2022-08-23T23:31:28.639Z,77.93
2022-08-23T23:33:56.448Z,77.83
2022-08-23T23:36:24.544Z,77.93
2022-08-23T23:38:53.882Z,78.39
2022-08-23T23:41:22.351Z,78.36
2022-08-23T23:43:50.212Z,78.67
2022-08-23T23:46:20.401Z,79.51
2022-08-23T23:48:50.134Z,80.08
2022-08-23T23:51:20.330Z,80.10
2022-08-23T23:53:48.422Z,79.24
2022-08-23T23:56:18.651Z,79.57
2022-08-23T23:58:46.781Z,79.76
